createdAt,value
2018-10-09T00:02:15.882Z,94743.27
2018-10-09T00:04:45.542Z,94741.75
2018-10-09T00:07:15.194Z,94742.95
2018-10-09T00:09:44.304Z,94737.86
2018-10-09T00:12:13.443Z,94738.28
2018-10-09T00:14:42.474Z,94739.56
2018-10-09T00:17:11.476Z,94737.96
2018-10-09T00:19:40.570Z,94741.37
2018-10-09T00:22:09.671Z,94739.17
2018-10-09T00:24:39.046Z,94739.86
2018-10-09T00:27:08.181Z,94742.46
2018-10-09T00:29:37.483Z,94742.83
2018-10-09T00:32:07.067Z,94738.16
2018-10-09T00:34:36.128Z,94739.45
2018-10-09T00:37:05.314Z,94740.26
2018-10-09T00:39:35.030Z,94746.94
2018-10-09T00:42:04.525Z,94742.64
2018-10-09T00:44:33.586Z,94735.55
2018-10-09T00:47:03.493Z,94740.64
2018-10-09T00:49:32.491Z,94740.73
2018-10-09T00:52:01.764Z,94737.86
2018-10-09T00:54:30.773Z,94732.69
2018-10-09T00:56:59.886Z,94735.55
2018-10-09T00:59:28.884Z,94731.53
2018-10-09T01:01:57.910Z,94726.59
2018-10-09T01:04:26.973Z,94730.44
2018-10-09T01:06:56.104Z,94728.05
2018-10-09T01:09:25.320Z,94732.05
2018-10-09T01:11:54.362Z,94721.18
2018-10-09T01:14:23.421Z,94727.66
2018-10-09T01:16:53.793Z,94720.86
2018-10-09T01:19:23.051Z,94724.66
2018-10-09T01:21:52.887Z,94725.84
2018-10-09T01:24:23.224Z,94725.95
2018-10-09T01:26:52.402Z,94727.64
2018-10-09T01:29:21.811Z,94729.10
2018-10-09T01:31:50.865Z,94729.02
2018-10-09T01:34:20.266Z,94727.97
2018-10-09T01:36:49.321Z,94728.33
2018-10-09T01:39:18.627Z,94730.42
2018-10-09T01:41:48.691Z,94729.23
2018-10-09T01:44:17.841Z,94730.42
2018-10-09T01:46:46.983Z,94729.44
2018-10-09T01:49:16.131Z,94727.91
2018-10-09T01:51:45.224Z,94732.66
2018-10-09T01:54:14.471Z,94731.36
2018-10-09T01:56:43.629Z,94732.69
2018-10-09T01:59:14.204Z,94727.23
2018-10-09T02:01:43.338Z,94723.97
2018-10-09T02:04:13.081Z,94722.04
2018-10-09T02:06:42.166Z,94730.73
2018-10-09T02:09:11.336Z,94720.27
2018-10-09T02:11:40.388Z,94729.92
2018-10-09T02:14:09.833Z,94728.44
2018-10-09T02:16:38.945Z,94727.55
2018-10-09T02:19:09.165Z,94731.55
2018-10-09T02:21:38.161Z,94731.59
2018-10-09T02:24:07.316Z,94736.44
2018-10-09T02:26:36.333Z,94731.14
2018-10-09T02:29:05.341Z,94732.80
2018-10-09T02:31:34.416Z,94743.83
2018-10-09T02:34:03.554Z,94740.90
2018-10-09T02:36:32.578Z,94739.10
2018-10-09T02:39:01.678Z,94738.03
2018-10-09T02:41:30.667Z,94743.56
2018-10-09T02:43:59.766Z,94740.82
2018-10-09T02:46:28.752Z,94741.45
2018-10-09T02:48:57.971Z,94750.31
2018-10-09T02:51:27.008Z,94751.22
2018-10-09T02:53:56.161Z,94752.21
2018-10-09T02:56:26.443Z,94752.30
2018-10-09T02:58:55.659Z,94754.31
2018-10-09T03:01:25.667Z,94760.02
2018-10-09T03:03:54.757Z,94750.92
2018-10-09T03:06:23.784Z,94754.34
2018-10-09T03:08:52.895Z,94752.52
2018-10-09T03:11:21.957Z,94749.31
2018-10-09T03:13:51.028Z,94748.21
2018-10-09T03:16:20.104Z,94743.88
2018-10-09T03:18:49.355Z,94749.66
2018-10-09T03:21:18.631Z,94753.92
2018-10-09T03:23:47.682Z,94754.64
2018-10-09T03:26:16.813Z,94754.92
2018-10-09T03:28:45.797Z,94758.05
2018-10-09T03:31:15.197Z,94756.33
2018-10-09T03:33:44.301Z,94760.51
2018-10-09T03:36:14.251Z,94754.42
2018-10-09T03:38:43.334Z,94756.14
2018-10-09T03:41:12.691Z,94758.45
2018-10-09T03:43:41.894Z,94761.44
2018-10-09T03:46:10.943Z,94763.48
2018-10-09T03:48:40.100Z,94761.75
2018-10-09T03:51:09.100Z,94760.62
2018-10-09T03:53:39.350Z,94760.97
2018-10-09T03:56:08.698Z,94766.55
2018-10-09T03:58:37.725Z,94764.44
2018-10-09T04:01:06.942Z,94756.91
2018-10-09T04:03:35.908Z,94761.65
2018-10-09T04:06:05.944Z,94761.55
2018-10-09T04:08:35.047Z,94761.77
2018-10-09T04:11:04.169Z,94766.66
2018-10-09T04:13:34.026Z,94771.63
2018-10-09T04:16:03.591Z,94779.73
2018-10-09T04:18:32.580Z,94773.91
2018-10-09T04:21:02.500Z,94777.51
2018-10-09T04:23:31.531Z,94779.83
2018-10-09T04:26:00.986Z,94777.73
2018-10-09T04:28:30.179Z,94779.25
2018-10-09T04:30:59.226Z,94778.84
2018-10-09T04:33:28.333Z,94777.79
2018-10-09T04:35:57.417Z,94774.69
2018-10-09T04:38:28.006Z,94771.81
2018-10-09T04:40:57.380Z,94773.91
2018-10-09T04:43:27.002Z,94776.69
2018-10-09T04:45:56.075Z,94779.92
2018-10-09T04:48:25.259Z,94779.27
2018-10-09T04:50:54.362Z,94781.55
2018-10-09T04:53:23.388Z,94780.50
2018-10-09T04:55:52.500Z,94786.17
2018-10-09T04:58:21.595Z,94784.02
2018-10-09T05:00:50.623Z,94786.83
2018-10-09T05:03:19.756Z,94793.07
2018-10-09T05:05:48.813Z,94791.89
2018-10-09T05:08:18.077Z,94795.59
2018-10-09T05:10:47.239Z,94792.83
2018-10-09T05:13:16.403Z,94798.07
2018-10-09T05:15:45.493Z,94796.16
2018-10-09T05:18:14.538Z,94795.79
2018-10-09T05:20:43.612Z,94797.95
2018-10-09T05:23:12.853Z,94798.94
2018-10-09T05:25:42.018Z,94810.45
2018-10-09T05:28:11.118Z,94791.97
2018-10-09T05:30:40.289Z,94815.76
2018-10-09T05:33:09.401Z,94805.95
2018-10-09T05:35:39.152Z,94815.84
2018-10-09T05:38:08.139Z,94817.05
2018-10-09T05:40:37.308Z,94824.48
2018-10-09T05:43:07.967Z,94823.22
2018-10-09T05:45:40.313Z,94829.70
2018-10-09T05:48:10.443Z,94830.02
2018-10-09T05:50:39.880Z,94833.81
2018-10-09T05:53:09.973Z,94840.13
2018-10-09T05:55:38.953Z,94835.27
2018-10-09T05:58:08.402Z,94839.52
2018-10-09T06:00:37.443Z,94846.70
2018-10-09T06:03:06.952Z,94846.27
2018-10-09T06:05:36.020Z,94854.59
2018-10-09T06:08:05.402Z,94859.77
2018-10-09T06:10:34.485Z,94861.00
2018-10-09T06:13:04.697Z,94862.79
2018-10-09T06:15:33.881Z,94861.17
2018-10-09T06:18:02.972Z,94863.45
2018-10-09T06:20:32.571Z,94865.84
2018-10-09T06:23:01.714Z,94870.46
2018-10-09T06:25:30.773Z,94877.98
2018-10-09T06:28:00.147Z,94871.63
2018-10-09T06:30:29.230Z,94874.96
2018-10-09T06:32:58.769Z,94876.44
2018-10-09T06:35:28.450Z,94880.20
2018-10-09T06:37:57.531Z,94880.82
2018-10-09T06:40:26.610Z,94883.59
2018-10-09T06:42:55.765Z,94880.45
2018-10-09T06:45:25.566Z,94885.53
2018-10-09T06:47:54.672Z,94886.86
2018-10-09T06:50:23.803Z,94884.04
2018-10-09T06:52:52.918Z,94885.10
2018-10-09T06:55:22.027Z,94882.33
2018-10-09T06:57:51.226Z,94881.89
2018-10-09T07:00:21.019Z,94877.49
2018-10-09T07:02:50.212Z,94884.67
2018-10-09T07:05:19.286Z,94877.81
2018-10-09T07:07:49.213Z,94876.40
2018-10-09T07:10:18.602Z,94886.14
2018-10-09T07:12:47.736Z,94886.56
2018-10-09T07:15:16.927Z,94881.89
2018-10-09T07:17:47.617Z,94879.27
2018-10-09T07:20:17.764Z,94879.14
2018-10-09T07:22:47.006Z,94880.51
2018-10-09T07:25:16.381Z,94882.93
2018-10-09T07:27:45.458Z,94885.75
2018-10-09T07:30:15.736Z,94879.53
2018-10-09T07:32:44.770Z,94875.09
2018-10-09T07:35:14.941Z,94877.50
2018-10-09T07:37:44.734Z,94877.50
2018-10-09T07:40:13.705Z,94873.57
2018-10-09T07:42:42.817Z,94873.11
2018-10-09T07:45:11.776Z,94874.66
2018-10-09T07:47:40.883Z,94879.02
2018-10-09T07:50:10.143Z,94874.20
2018-10-09T07:52:39.368Z,94877.52
2018-10-09T07:55:08.456Z,94879.86
2018-10-09T07:57:37.554Z,94874.06
2018-10-09T08:00:07.329Z,94874.93
2018-10-09T08:02:36.448Z,94869.21
2018-10-09T08:05:05.660Z,94872.09
2018-10-09T08:07:34.740Z,94869.02
2018-10-09T08:10:03.850Z,94868.41
2018-10-09T08:12:33.457Z,94865.81
2018-10-09T08:15:03.038Z,94872.83
2018-10-09T08:17:32.055Z,94871.23
2018-10-09T08:20:01.220Z,94864.94
2018-10-09T08:22:30.430Z,94864.89
2018-10-09T08:24:59.763Z,94864.77
2018-10-09T08:27:29.619Z,94864.22
2018-10-09T08:29:58.589Z,94862.00
2018-10-09T08:32:28.089Z,94863.02
2018-10-09T08:34:57.166Z,94858.62
2018-10-09T08:37:26.842Z,94855.84
2018-10-09T08:39:55.996Z,94853.08
2018-10-09T08:42:25.530Z,94848.69
2018-10-09T08:44:54.540Z,94847.91
2018-10-09T08:47:23.521Z,94842.55
2018-10-09T08:49:52.556Z,94842.44
2018-10-09T08:52:21.877Z,94838.08
2018-10-09T08:54:50.881Z,94832.84
2018-10-09T08:57:19.950Z,94836.41
2018-10-09T08:59:49.568Z,94829.88
2018-10-09T09:02:18.606Z,94830.81
2018-10-09T09:04:47.574Z,94835.41
2018-10-09T09:07:16.611Z,94833.55
2018-10-09T09:09:45.649Z,94831.84
2018-10-09T09:12:15.048Z,94827.16
2018-10-09T09:14:44.058Z,94821.68
2018-10-09T09:17:13.088Z,94811.22
2018-10-09T09:19:42.433Z,94815.08
2018-10-09T09:22:11.683Z,94804.57
2018-10-09T09:24:40.712Z,94807.41
2018-10-09T09:27:10.475Z,94800.80
2018-10-09T09:29:39.804Z,94802.59
2018-10-09T09:32:09.248Z,94796.19
2018-10-09T09:34:38.267Z,94790.12
2018-10-09T09:37:07.375Z,94786.70
2018-10-09T09:39:36.446Z,94786.25
2018-10-09T09:42:06.369Z,94792.18
2018-10-09T09:44:35.448Z,94787.34
2018-10-09T09:47:04.600Z,94783.47
2018-10-09T09:49:33.745Z,94781.44
2018-10-09T09:52:02.997Z,94773.74
2018-10-09T09:54:32.080Z,94774.48
2018-10-09T09:57:01.104Z,94772.48
2018-10-09T09:59:30.507Z,94769.93
2018-10-09T10:01:59.664Z,94767.82
2018-10-09T10:04:28.780Z,94767.33
2018-10-09T10:06:59.048Z,94766.55
2018-10-09T10:09:28.484Z,94764.25
2018-10-09T10:11:57.489Z,94764.28
2018-10-09T10:14:33.177Z,94765.72
2018-10-09T10:17:02.266Z,94763.50
2018-10-09T10:19:31.894Z,94761.41
2018-10-09T10:22:00.991Z,94753.84
2018-10-09T10:24:30.205Z,94755.16
2018-10-09T10:26:59.229Z,94750.97
2018-10-09T10:29:28.302Z,94746.30
2018-10-09T10:31:57.401Z,94740.11
2018-10-09T10:34:27.763Z,94743.16
2018-10-09T10:36:57.464Z,94739.30
2018-10-09T10:39:26.633Z,94728.81
2018-10-09T10:41:55.763Z,94727.66
2018-10-09T10:44:25.553Z,94711.96
2018-10-09T10:46:54.586Z,94716.19
2018-10-09T10:49:23.762Z,94706.88
2018-10-09T10:51:53.235Z,94708.66
2018-10-09T10:54:22.503Z,94703.19
2018-10-09T10:56:52.624Z,94709.03
2018-10-09T10:59:21.741Z,94701.92
2018-10-09T11:01:50.901Z,94701.11
2018-10-09T11:04:19.949Z,94703.78
2018-10-09T11:06:49.336Z,94692.67
2018-10-09T11:09:19.283Z,94690.23
2018-10-09T11:11:48.472Z,94682.69
2018-10-09T11:14:17.591Z,94684.47
2018-10-09T11:16:46.651Z,94680.85
2018-10-09T11:19:15.935Z,94681.46
2018-10-09T11:21:45.491Z,94673.80
2018-10-09T11:24:14.584Z,94670.67
2018-10-09T11:26:44.535Z,94666.75
2018-10-09T11:29:13.905Z,94667.33
2018-10-09T11:31:43.005Z,94662.39
2018-10-09T11:34:13.123Z,94662.81
2018-10-09T11:36:42.244Z,94660.83
2018-10-09T11:39:12.096Z,94659.68
2018-10-09T11:41:41.214Z,94652.50
2018-10-09T11:44:10.438Z,94655.89
2018-10-09T11:46:40.255Z,94656.11
2018-10-09T11:49:09.608Z,94646.38
2018-10-09T11:51:38.804Z,94646.95
2018-10-09T11:54:08.227Z,94647.79
2018-10-09T11:56:37.418Z,94644.91
2018-10-09T11:59:08.400Z,94640.03
2018-10-09T12:01:37.505Z,94641.85
2018-10-09T12:04:06.642Z,94637.77
2018-10-09T12:06:35.717Z,94639.34
2018-10-09T12:09:05.941Z,94636.03
2018-10-09T12:11:35.775Z,94634.53
2018-10-09T12:14:04.975Z,94640.22
2018-10-09T12:16:34.280Z,94639.09
2018-10-09T12:19:04.312Z,94637.44
2018-10-09T12:21:33.774Z,94631.95
2018-10-09T12:24:02.878Z,94631.08
2018-10-09T12:26:32.631Z,94629.89
2018-10-09T12:29:01.916Z,94628.52
2018-10-09T12:31:31.041Z,94628.67
2018-10-09T12:34:00.286Z,94627.52
2018-10-09T12:36:30.362Z,94625.53
2018-10-09T12:41:30.850Z,94622.52
2018-10-09T12:44:00.145Z,94623.88
2018-10-09T12:46:29.283Z,94620.36
2018-10-09T12:49:00.273Z,94622.35
2018-10-09T12:51:29.618Z,94623.52
2018-10-09T12:53:59.519Z,94616.97
2018-10-09T12:56:28.734Z,94616.98
2018-10-09T12:58:58.107Z,94615.02
2018-10-09T13:01:27.104Z,94621.63
2018-10-09T13:03:56.118Z,94619.44
2018-10-09T13:06:25.254Z,94619.08
2018-10-09T13:08:54.231Z,94620.77
2018-10-09T13:11:23.618Z,94616.59
2018-10-09T13:13:53.009Z,94617.12
2018-10-09T13:16:22.262Z,94617.56
2018-10-09T13:18:52.213Z,94610.21
2018-10-09T13:21:22.276Z,94614.00
2018-10-09T13:23:51.473Z,94611.16
2018-10-09T13:26:20.907Z,94610.14
2018-10-09T13:28:50.789Z,94607.42
2018-10-09T13:31:19.939Z,94610.24
2018-10-09T13:33:49.336Z,94610.34
2018-10-09T13:36:19.757Z,94608.00
2018-10-09T13:38:49.525Z,94609.83
2018-10-09T13:41:18.731Z,94617.36
2018-10-09T13:43:47.891Z,94613.33
2018-10-09T13:46:17.502Z,94607.38
2018-10-09T13:48:46.988Z,94608.70
2018-10-09T13:51:16.301Z,94603.00
2018-10-09T13:53:45.404Z,94610.65
2018-10-09T13:56:15.181Z,94606.41
2018-10-09T13:58:45.052Z,94608.16
2018-10-09T14:01:14.109Z,94608.81
2018-10-09T14:03:43.295Z,94605.15
2018-10-09T14:06:12.771Z,94607.19
2018-10-09T14:08:42.009Z,94611.47
2018-10-09T14:11:11.150Z,94599.31
2018-10-09T14:13:40.569Z,94599.99
2018-10-09T14:16:10.645Z,94598.86
2018-10-09T14:18:39.865Z,94596.94
2018-10-09T14:21:09.597Z,94591.36
2018-10-09T14:23:38.760Z,94591.58
2018-10-09T14:26:08.144Z,94588.94
2018-10-09T14:28:37.250Z,94586.00
2018-10-09T14:31:06.667Z,94586.96
2018-10-09T14:33:36.160Z,94589.87
2018-10-09T14:36:05.289Z,94590.10
2018-10-09T14:38:34.514Z,94586.38
2018-10-09T14:41:04.247Z,94589.69
2018-10-09T14:43:33.372Z,94591.17
2018-10-09T14:46:03.132Z,94588.06
2018-10-09T14:48:32.230Z,94590.16
2018-10-09T14:51:02.319Z,94590.77
2018-10-09T14:53:31.703Z,94587.32
2018-10-09T14:56:01.386Z,94589.77
2018-10-09T14:58:30.538Z,94587.98
2018-10-09T15:00:59.724Z,94583.71
2018-10-09T15:03:29.857Z,94581.34
2018-10-09T15:05:58.995Z,94579.11
2018-10-09T15:08:30.329Z,94584.16
2018-10-09T15:10:59.503Z,94579.59
2018-10-09T15:13:28.791Z,94585.50
2018-10-09T15:15:58.300Z,94584.38
2018-10-09T15:18:28.376Z,94578.92
2018-10-09T15:20:57.605Z,94583.20
2018-10-09T15:23:27.074Z,94585.08
2018-10-09T15:25:57.124Z,94587.47
2018-10-09T15:28:26.250Z,94589.32
2018-10-09T15:30:55.394Z,94600.06
2018-10-09T15:33:24.864Z,94605.83
2018-10-09T15:35:55.492Z,94608.47
2018-10-09T15:38:25.645Z,94611.41
2018-10-09T15:40:54.936Z,94608.72
2018-10-09T15:43:24.094Z,94614.42
2018-10-09T15:45:54.109Z,94615.48
2018-10-09T15:48:23.346Z,94614.61
2018-10-09T15:50:52.562Z,94625.36
2018-10-09T15:53:22.780Z,94617.88
2018-10-09T15:55:53.615Z,94626.41
2018-10-09T15:58:22.981Z,94629.45
2018-10-09T16:00:53.416Z,94629.65
2018-10-09T16:03:23.575Z,94627.78
2018-10-09T16:05:52.851Z,94632.45
2018-10-09T16:08:22.924Z,94638.89
2018-10-09T16:10:52.093Z,94634.45
2018-10-09T16:13:21.140Z,94643.84
2018-10-09T16:15:51.974Z,94641.89
2018-10-09T16:18:21.375Z,94644.48
2018-10-09T16:20:50.935Z,94642.71
2018-10-09T16:23:20.712Z,94649.36
2018-10-09T16:25:50.584Z,94652.11
2018-10-09T16:28:20.169Z,94653.30
2018-10-09T16:30:49.436Z,94652.55
2018-10-09T16:33:18.716Z,94652.91
2018-10-09T16:35:48.232Z,94657.34
2018-10-09T16:38:17.484Z,94660.02
2018-10-09T16:40:47.608Z,94668.73
2018-10-09T16:43:17.141Z,94667.41
2018-10-09T16:45:46.387Z,94673.56
2018-10-09T16:48:15.724Z,94670.72
2018-10-09T16:50:44.953Z,94678.36
2018-10-09T16:53:14.155Z,94680.94
2018-10-09T16:55:43.661Z,94681.98
2018-10-09T16:58:12.896Z,94689.28
2018-10-09T17:00:42.074Z,94687.03
2018-10-09T17:03:11.758Z,94696.13
2018-10-09T17:05:40.832Z,94695.41
2018-10-09T17:08:11.879Z,94691.80
2018-10-09T17:10:41.035Z,94689.77
2018-10-09T17:13:10.160Z,94689.01
2018-10-09T17:15:39.342Z,94701.91
2018-10-09T17:18:08.422Z,94703.66
2018-10-09T17:20:37.632Z,94705.53
2018-10-09T17:23:06.940Z,94712.88
2018-10-09T17:25:36.135Z,94709.01
2018-10-09T17:28:06.328Z,94717.99
2018-10-09T17:30:35.756Z,94715.92
2018-10-09T17:33:06.210Z,94704.60
2018-10-09T17:35:36.266Z,94713.16
2018-10-09T17:38:06.033Z,94722.14
2018-10-09T17:40:35.205Z,94724.04
2018-10-09T17:43:04.575Z,94725.84
2018-10-09T17:45:33.768Z,94730.53
2018-10-09T17:48:03.801Z,94736.75
2018-10-09T17:50:32.931Z,94734.75
2018-10-09T17:53:02.347Z,94729.95
2018-10-09T17:55:32.160Z,94734.84
2018-10-09T17:58:01.271Z,94748.08
2018-10-09T18:00:30.484Z,94742.05
2018-10-09T18:02:59.630Z,94735.36
2018-10-09T18:05:28.788Z,94738.77
2018-10-09T18:07:58.369Z,94738.07
2018-10-09T18:10:28.387Z,94738.88
2018-10-09T18:12:58.484Z,94745.23
2018-10-09T18:15:29.484Z,94745.77
2018-10-09T18:17:59.814Z,94749.96
2018-10-09T18:20:31.643Z,94751.13
2018-10-09T18:23:00.905Z,94748.16
2018-10-09T18:25:30.713Z,94751.27
2018-10-09T18:28:00.839Z,94753.95
2018-10-09T18:30:30.151Z,94754.05
2018-10-09T18:32:59.409Z,94756.23
2018-10-09T18:35:31.069Z,94755.36
2018-10-09T18:38:01.056Z,94746.77
2018-10-09T18:40:32.697Z,94755.01
2018-10-09T18:43:01.877Z,94753.81
2018-10-09T18:45:31.508Z,94749.44
2018-10-09T18:48:01.515Z,94751.48
2018-10-09T18:50:31.199Z,94763.14
2018-10-09T18:53:01.467Z,94763.63
2018-10-09T18:55:32.008Z,94764.86
2018-10-09T18:58:02.264Z,94773.06
2018-10-09T19:00:32.657Z,94764.86
2018-10-09T19:03:02.049Z,94766.09
2018-10-09T19:05:31.771Z,94762.53
2018-10-09T19:08:01.076Z,94773.86
2018-10-09T19:10:32.178Z,94769.50
2018-10-09T19:13:02.124Z,94778.36
2018-10-09T19:15:31.399Z,94779.66
2018-10-09T19:18:00.999Z,94783.14
2018-10-09T19:20:30.192Z,94786.47
2018-10-09T19:22:59.408Z,94790.16
2018-10-09T19:25:28.578Z,94790.02
2018-10-09T19:27:57.884Z,94797.27
2018-10-09T19:30:27.207Z,94793.13
2018-10-09T19:32:56.390Z,94796.36
2018-10-09T19:35:26.107Z,94799.41
2018-10-09T19:37:56.205Z,94803.84
2018-10-09T19:40:25.334Z,94800.95
2018-10-09T19:42:55.090Z,94801.13
2018-10-09T19:45:24.540Z,94812.02
2018-10-09T19:47:53.979Z,94810.60
2018-10-09T19:50:23.559Z,94811.94
2018-10-09T19:52:53.760Z,94808.53
2018-10-09T19:55:23.103Z,94816.58
2018-10-09T19:57:52.559Z,94820.56
2018-10-09T20:00:22.833Z,94825.48
2018-10-09T20:02:52.478Z,94828.52
2018-10-09T20:05:23.018Z,94831.00
2018-10-09T20:07:52.248Z,94832.15
2018-10-09T20:10:21.641Z,94836.94
2018-10-09T20:12:52.432Z,94844.45
2018-10-09T20:15:22.274Z,94837.66
2018-10-09T20:17:52.825Z,94841.71
2018-10-09T20:20:21.989Z,94841.20
2018-10-09T20:22:51.924Z,94837.22
2018-10-09T20:25:20.954Z,94846.87
2018-10-09T20:27:50.127Z,94845.41
2018-10-09T20:30:19.848Z,94853.84
2018-10-09T20:32:49.120Z,94855.66
2018-10-09T20:35:18.267Z,94861.47
2018-10-09T20:37:47.405Z,94862.27
2018-10-09T20:40:16.900Z,94863.06
2018-10-09T20:42:46.217Z,94862.51
2018-10-09T20:45:15.612Z,94861.72
2018-10-09T20:47:46.680Z,94860.95
2018-10-09T20:50:16.237Z,94861.89
2018-10-09T20:52:45.511Z,94864.33
2018-10-09T20:55:14.570Z,94864.03
2018-10-09T20:57:44.025Z,94871.08
2018-10-09T21:00:13.160Z,94880.47
2018-10-09T21:02:42.478Z,94877.91
2018-10-09T21:05:12.764Z,94880.55
2018-10-09T21:07:41.909Z,94882.57
2018-10-09T21:10:11.193Z,94875.67
2018-10-09T21:12:40.310Z,94878.43
2018-10-09T21:15:09.723Z,94881.77
2018-10-09T21:17:38.839Z,94843.50
2018-10-09T21:20:07.935Z,94887.69
2018-10-09T21:22:37.287Z,94885.15
2018-10-09T21:25:06.288Z,94880.06
2018-10-09T21:27:35.451Z,94877.63
2018-10-09T21:30:04.748Z,94879.47
2018-10-09T21:32:33.805Z,94872.36
2018-10-09T21:35:03.020Z,94872.95
2018-10-09T21:37:32.127Z,94868.04
2018-10-09T21:40:01.117Z,94871.95
2018-10-09T21:42:31.623Z,94866.23
2018-10-09T21:45:00.779Z,94871.27
2018-10-09T21:47:29.784Z,94866.34
2018-10-09T21:49:58.897Z,94860.39
2018-10-09T21:52:28.320Z,94869.69
2018-10-09T21:54:57.558Z,94868.20
2018-10-09T21:57:26.624Z,94869.84
2018-10-09T21:59:55.812Z,94874.88
2018-10-09T22:02:24.885Z,94872.75
2018-10-09T22:04:54.048Z,94877.66
2018-10-09T22:07:23.788Z,94880.55
2018-10-09T22:09:53.094Z,94879.34
2018-10-09T22:12:22.813Z,94877.66
2018-10-09T22:14:51.993Z,94878.53
2018-10-09T22:17:21.246Z,94877.97
2018-10-09T22:19:50.328Z,94885.27
2018-10-09T22:22:20.201Z,94879.97
2018-10-09T22:24:49.305Z,94882.39
2018-10-09T22:27:18.628Z,94876.73
2018-10-09T22:29:47.756Z,94874.68
2018-10-09T22:32:17.028Z,94879.25
2018-10-09T22:34:47.677Z,94873.27
2018-10-09T22:37:17.245Z,94883.48
2018-10-09T22:39:46.353Z,94883.88
2018-10-09T22:42:15.933Z,94884.81
2018-10-09T22:44:45.124Z,94883.08
2018-10-09T22:47:14.567Z,94881.11
2018-10-09T22:49:43.715Z,94881.70
2018-10-09T22:52:12.934Z,94878.70
2018-10-09T22:54:42.534Z,94883.71
2018-10-09T22:57:11.702Z,94883.70
2018-10-09T22:59:41.959Z,94878.81
2018-10-09T23:02:11.117Z,94880.70
2018-10-09T23:04:41.389Z,94878.70
2018-10-09T23:07:10.582Z,94873.93
2018-10-09T23:09:39.726Z,94886.30
2018-10-09T23:12:08.840Z,94883.02
2018-10-09T23:14:37.941Z,94881.42
2018-10-09T23:17:07.161Z,94882.41
2018-10-09T23:19:36.187Z,94880.73
2018-10-09T23:22:05.330Z,94879.93
2018-10-09T23:24:34.613Z,94881.04
2018-10-09T23:27:03.716Z,94878.13
2018-10-09T23:29:32.856Z,94878.69
2018-10-09T23:32:01.987Z,94878.44
2018-10-09T23:34:31.029Z,94878.89
2018-10-09T23:37:00.109Z,94881.08
2018-10-09T23:39:29.241Z,94881.59
2018-10-09T23:41:58.864Z,94881.28
2018-10-09T23:44:28.262Z,94880.06
2018-10-09T23:46:57.251Z,94883.55
2018-10-09T23:49:26.344Z,94881.17
2018-10-09T23:51:55.388Z,94884.86
2018-10-09T23:54:24.553Z,94877.56
2018-10-09T23:56:53.852Z,94877.02
2018-10-09T23:59:22.878Z,94879.75
